Aeroporto :
LOGIN :

Iscrizione | Disclaimer

   EN    FR    IT 

 










Sommario :    VFR   VFR Marginale   IFR   IFR Intensivo   IFR Molto Intensivo
Visibilità : 
Base nubi : 
>= 8 km
>= 3000ft
5 / 8 km
1000 / 3000 ft
1500m / 5 km
500 / 1000 ft
800 / 1500m
200 / 500 ft
< 800m
< 200 ft
Simboli :   Temporali  Nebbia  Neve Forte  Precipitazioni Forti  Vento > 20 kt
SIGMETs :   Varie  Temporali  Ghiacco  Turbolenza  Onda orograficha  Ceneri Vulcaniche






- Altitudine del aeroporto : 359 ft
- Codice IATA : BVA


LFOB - Beauvais

ULTIMO METAR :
  • 211330Z AUTO 02016KT 9999 SCT045 BKN056 BKN066 11/02 Q1024 TEMPO 34017G27KT 4000 SHRA BKN020TCU

METARs OBSOLETI :
  • 211300Z AUTO 01017KT 340V050 9999 FEW042 SCT048 BKN060 10/02 Q1024 TEMPO 34017G27KT 4000 SHRA BKN020TCU
  • 211230Z AUTO 01015KT 9999 FEW031 SCT054 BKN064 11/04 Q1024 TEMPO 34017G27KT 4000 SHRA BKN020TCU
  • 211200Z AUTO 01012KT 340V040 9999 FEW020 SCT048 BKN064 10/05 Q1024 TEMPO 34017G27KT 4000 SHRA BKN020TCU
  • 211130Z AUTO 35009KT 7000 SCT019/// SCT032/// BKN052/// ///TCU 07/06 Q1024 TEMPO 34017G27KT 3000 SHRA BECMG SCT020
  • 211100Z AUTO 36014KT 320V020 8000 3200 BKN022/// BKN029/// BKN042/// //////TCU 08/05 Q1025 TEMPO 34017G27KT 3000 SHRA BKN013 BKN020TCU
  • 211030Z AUTO 35015KT 9999 -RA BKN031 BKN039 OVC048 08/03 Q1024 TEMPO 34017G27KT 3000 SHRA BKN013 BKN020TCU
  • 211000Z AUTO 34016KT 9999 BKN035 BKN042 OVC076 09/03 Q1024 TEMPO 34017G27KT 3000 SHRA BKN013 BKN020TCU
  • 210930Z AUTO 36016KT 9999 SCT030 BKN037 BKN048 10/02 Q1025 TEMPO 34017G27KT 3000 SHRA BKN013 BKN020TCU
  • 210900Z AUTO 36014KT 320V020 9999 BKN028 08/02 Q1025 TEMPO 34017G27KT 3000 SHRA BKN013 BKN020TCU

TAF TAF LFOB
Valido dal 21 a 12 ore il 22 a 12 ore UTC


211100Z 2112/2212 36010KT 9999 BKN020
TEMPO 2112/2115 34017G27KT 4000 SHRA BKN020TCU
PROB30
TEMPO 2117/2120 03015G25KT 4000 SHRA BKN025TCU
ATIS : +33 3 44 11 49 28



MetMap, La meteo Aeronautica in un colpo d'occhio ! - Copyright ORBIFLY Dicembre 2007 - Disclaimer

ORBIFLY MET'MAP TEAM :

Programmazione e sviluppo : Alexandra Zaïnal
Concezione : Baudouin d'Aumeries
Supporto tecnico e logistico : Manuel Goepfert
Aiuto : Marc-Olivier Méhu
Aiuto per la traduzione : Arnaldo La Scala




FONTI E CREDITI :

   NOAA